Time;durP1;ratioP1;P1;durP2;ratioP2;P2;SDS_P1;SDS_P2;PMS_P1;PMS_P2;Temp;Humidity;BMP_temperature;BMP_pressure;BME280_temperature;BME280_humidity;BME280_pressure;Samples;Min_cycle;Max_cycle;Signal;HPM_P1;HPM_P2
2022/11/01 00:01:33;;;;;;;17.45;11.73;;;13.50;99.90;;;;;;5042380;28;20064;-58
2022/11/01 00:03:58;;;;;;;17.55;11.20;;;13.60;99.90;;;;;;5039693;28;20033;-58
2022/11/01 00:06:24;;;;;;;17.33;11.00;;;13.60;99.90;;;;;;5040220;28;20526;-57
2022/11/01 00:08:49;;;;;;;19.95;11.13;;;13.60;99.90;;;;;;5039052;28;20040;-59
2022/11/01 00:11:16;;;;;;;17.25;10.98;;;13.60;99.90;;;;;;5044374;28;20052;-59
2022/11/01 00:13:45;;;;;;;18.55;10.95;;;13.70;99.90;;;;;;5040909;28;20068;-58
2022/11/01 00:16:11;;;;;;;16.42;10.98;;;13.70;99.90;;;;;;5040894;28;20786;-59
2022/11/01 00:18:36;;;;;;;17.90;10.88;;;13.80;99.90;;;;;;5020286;28;20045;-58
2022/11/01 00:21:02;;;;;;;18.35;10.15;;;13.80;99.90;;;;;;5043722;28;20170;-58
2022/11/01 00:23:28;;;;;;;15.57;10.00;;;13.80;99.90;;;;;;5043119;28;20033;-57
2022/11/01 00:25:57;;;;;;;16.63;10.10;;;13.90;99.90;;;;;;5043004;28;20084;-56
2022/11/01 00:28:22;;;;;;;13.80;9.85;;;13.90;99.90;;;;;;5042747;28;20044;-58
2022/11/01 00:30:52;;;;;;;12.52;9.77;;;14.00;99.90;;;;;;5043649;28;20049;-58
2022/11/01 00:33:18;;;;;;;15.38;9.52;;;14.00;99.90;;;;;;5023195;28;20052;-56
2022/11/01 00:35:45;;;;;;;20.08;9.40;;;14.10;99.90;;;;;;5040707;28;20036;-57
2022/11/01 00:38:11;;;;;;;14.57;9.82;;;14.10;99.90;;;;;;5041301;28;20425;-58
2022/11/01 00:40:37;;;;;;;14.00;9.52;;;14.10;99.90;;;;;;5041152;28;20049;-58
2022/11/01 00:43:02;;;;;;;15.93;9.30;;;14.10;99.90;;;;;;5043698;28;20045;-57
2022/11/01 00:45:28;;;;;;;16.17;9.13;;;14.10;99.90;;;;;;5040872;28;20044;-58
2022/11/01 00:47:53;;;;;;;14.93;9.63;;;14.10;99.90;;;;;;5042652;28;20048;-58
2022/11/01 00:50:19;;;;;;;14.80;8.50;;;14.10;99.90;;;;;;5042244;28;20045;-57
2022/11/01 00:52:45;;;;;;;15.27;9.73;;;14.20;99.90;;;;;;5046888;28;20045;-57
2022/11/01 00:55:10;;;;;;;21.70;9.10;;;14.20;99.90;;;;;;5040200;28;20517;-59
2022/11/01 00:57:36;;;;;;;13.90;8.65;;;14.20;99.90;;;;;;5042278;28;20120;-59
2022/11/01 01:00:03;;;;;;;14.70;8.75;;;14.20;99.90;;;;;;5039398;28;20753;-58
2022/11/01 01:02:29;;;;;;;14.13;8.63;;;14.30;99.90;;;;;;5041665;28;20040;-54
2022/11/01 01:04:54;;;;;;;17.75;9.68;;;14.30;99.90;;;;;;5044992;28;20086;-57
2022/11/01 01:07:20;;;;;;;18.60;8.90;;;14.30;99.90;;;;;;5057501;28;20389;-58
2022/11/01 01:09:46;;;;;;;14.43;8.57;;;14.30;99.90;;;;;;5046381;28;20041;-57
2022/11/01 01:12:11;;;;;;;16.08;8.40;;;14.30;99.90;;;;;;5041458;28;21672;-57
2022/11/01 01:14:37;;;;;;;15.88;7.95;;;14.30;99.90;;;;;;5041973;28;20064;-57
2022/11/01 01:17:03;;;;;;;15.25;8.35;;;14.40;99.90;;;;;;5041504;28;20437;-57
2022/11/01 01:19:28;;;;;;;14.23;8.45;;;14.40;99.90;;;;;;5043465;28;20049;-58
2022/11/01 01:21:55;;;;;;;18.20;8.90;;;14.30;99.90;;;;;;5043371;28;20134;-56
2022/11/01 01:24:21;;;;;;;13.52;8.18;;;14.40;99.90;;;;;;5041885;28;20088;-58
2022/11/01 01:26:46;;;;;;;14.55;7.80;;;14.30;99.90;;;;;;5042753;28;20049;-58
2022/11/01 01:29:12;;;;;;;13.80;7.78;;;14.40;99.90;;;;;;5041698;28;20047;-57
2022/11/01 01:31:37;;;;;;;13.00;8.00;;;14.40;99.90;;;;;;5040225;28;20047;-58
2022/11/01 01:34:03;;;;;;;13.85;8.20;;;14.40;99.90;;;;;;5042284;28;20041;-57
2022/11/01 01:36:29;;;;;;;14.43;8.07;;;14.30;99.90;;;;;;5039014;28;20179;-58
2022/11/01 01:38:54;;;;;;;13.02;7.13;;;14.40;99.90;;;;;;5039498;28;20045;-57
2022/11/01 01:44:42;;;;;;;15.18;7.85;;;14.40;99.90;;;;;;5039532;28;20056;-56
2022/11/01 01:47:10;;;;;;;11.93;7.72;;;14.40;99.90;;;;;;5036405;28;20465;-57
2022/11/01 01:49:36;;;;;;;12.57;7.57;;;14.40;99.90;;;;;;5021406;28;20048;-58
2022/11/01 01:52:02;;;;;;;13.30;7.93;;;14.40;99.90;;;;;;5041430;28;20040;-57
2022/11/01 01:54:29;;;;;;;14.05;6.93;;;14.40;99.90;;;;;;5041291;28;20079;-59
2022/11/01 01:56:55;;;;;;;13.60;7.32;;;14.40;99.90;;;;;;5037844;28;20033;-57
2022/11/01 01:59:24;;;;;;;12.60;7.32;;;14.40;99.90;;;;;;5039220;28;20410;-56
2022/11/01 02:01:50;;;;;;;16.23;8.10;;;14.40;99.90;;;;;;5039848;28;20064;-56
2022/11/01 02:04:41;;;;;;;11.70;7.45;;;14.40;99.90;;;;;;5038622;28;20470;-57
2022/11/01 02:07:08;;;;;;;12.52;7.32;;;14.30;99.90;;;;;;5030062;28;20447;-57
2022/11/01 02:09:34;;;;;;;11.90;7.35;;;14.30;99.90;;;;;;5038245;28;20130;-58
2022/11/01 02:12:01;;;;;;;13.20;7.38;;;14.30;99.90;;;;;;5049651;28;20040;-58
2022/11/01 02:14:28;;;;;;;10.68;7.07;;;14.30;99.90;;;;;;5043254;28;20447;-59
2022/11/01 02:17:16;;;;;;;9.77;6.85;;;14.30;99.90;;;;;;5038229;28;20116;-56
2022/11/01 02:20:25;;;;;;;14.20;7.35;;;14.30;99.90;;;;;;5041240;28;20048;-56
2022/11/01 02:23:16;;;;;;;12.20;7.82;;;14.30;99.90;;;;;;5043399;28;20142;-57
2022/11/01 02:26:24;;;;;;;17.55;7.80;;;14.30;99.90;;;;;;5026119;28;20045;-57
2022/11/01 02:28:52;;;;;;;12.35;6.38;;;14.30;99.90;;;;;;5038374;28;20053;-57
2022/11/01 02:32:00;;;;;;;11.98;6.35;;;14.40;99.90;;;;;;5042570;28;20065;-56
2022/11/01 02:34:41;;;;;;;9.07;5.93;;;14.40;99.90;;;;;;5019880;28;20106;-56
2022/11/01 02:37:25;;;;;;;12.75;5.78;;;14.60;99.90;;;;;;5025733;28;20052;-57
2022/11/01 02:39:57;;;;;;;12.27;5.75;;;14.70;99.90;;;;;;5042028;28;20041;-57
2022/11/01 02:42:30;;;;;;;10.93;5.43;;;14.80;99.90;;;;;;5021655;28;20578;-57
2022/11/01 02:45:03;;;;;;;14.77;5.95;;;14.90;99.90;;;;;;5042974;28;20587;-57
2022/11/01 02:47:30;;;;;;;11.93;5.82;;;15.00;99.90;;;;;;5044343;28;20114;-57
2022/11/01 02:50:01;;;;;;;13.35;5.63;;;15.00;99.90;;;;;;5044010;28;20044;-57
2022/11/01 02:52:31;;;;;;;12.02;5.25;;;15.10;99.90;;;;;;5042410;28;20045;-58
2022/11/01 02:55:25;;;;;;;12.77;5.07;;;15.10;99.90;;;;;;5025825;28;20048;-58
2022/11/01 02:57:51;;;;;;;12.40;5.45;;;15.20;99.90;;;;;;5043639;28;20179;-57
2022/11/01 03:00:24;;;;;;;11.40;5.18;;;15.20;99.90;;;;;;5025787;28;20724;-57
2022/11/01 03:03:04;;;;;;;11.93;5.45;;;15.20;99.90;;;;;;5043089;28;20494;-57
2022/11/01 03:05:51;;;;;;;11.07;5.47;;;15.30;99.90;;;;;;5044633;28;20033;-58
2022/11/01 03:08:21;;;;;;;12.90;5.78;;;15.30;99.90;;;;;;5044291;28;20040;-58
2022/11/01 03:10:56;;;;;;;8.10;6.03;;;15.40;99.90;;;;;;5024013;28;20055;-58
2022/11/01 03:13:38;;;;;;;10.35;5.22;;;15.40;99.90;;;;;;5040794;28;20052;-58
2022/11/01 03:16:28;;;;;;;10.35;5.25;;;15.50;99.90;;;;;;5044861;28;20045;-59
2022/11/01 03:19:05;;;;;;;10.95;5.55;;;15.50;99.90;;;;;;5038279;28;20092;-58
2022/11/01 03:21:46;;;;;;;9.90;4.67;;;15.60;99.90;;;;;;5043919;28;20120;-59
2022/11/01 03:24:18;;;;;;;9.82;4.80;;;15.60;99.90;;;;;;5042787;28;20040;-57
2022/11/01 03:26:51;;;;;;;9.98;4.82;;;15.60;99.90;;;;;;5044679;28;20052;-58
2022/11/01 03:29:20;;;;;;;10.45;5.03;;;15.70;99.90;;;;;;5043792;28;20041;-57
2022/11/01 03:31:48;;;;;;;10.20;4.68;;;15.70;99.90;;;;;;5040714;28;20372;-56
2022/11/01 03:34:17;;;;;;;11.35;4.80;;;15.70;99.90;;;;;;5043137;28;20243;-59
2022/11/01 03:36:50;;;;;;;10.98;5.63;;;15.70;99.90;;;;;;5043682;28;20679;-57
2022/11/01 03:39:23;;;;;;;12.70;5.18;;;15.70;99.90;;;;;;5046010;28;20037;-58
2022/11/01 03:41:59;;;;;;;10.18;4.88;;;15.70;99.90;;;;;;5038846;28;20049;-57
2022/11/01 03:44:29;;;;;;;10.65;5.03;;;15.70;99.90;;;;;;5026225;28;20521;-57
2022/11/01 03:46:55;;;;;;;11.43;5.13;;;15.60;99.90;;;;;;5040101;28;20087;-58
2022/11/01 03:49:20;;;;;;;8.63;5.22;;;15.70;99.90;;;;;;5026267;28;20128;-58
2022/11/01 03:51:47;;;;;;;9.30;4.82;;;15.60;99.90;;;;;;5040918;28;20159;-58
2022/11/01 03:54:13;;;;;;;8.30;4.90;;;15.60;99.90;;;;;;5039909;28;20037;-58
2022/11/01 03:56:42;;;;;;;10.35;4.93;;;15.60;99.90;;;;;;5040915;28;20291;-58
2022/11/01 03:59:08;;;;;;;12.43;5.55;;;15.50;99.90;;;;;;5041951;28;20057;-57
2022/11/01 04:01:34;;;;;;;9.77;5.10;;;15.60;99.90;;;;;;5040130;28;20047;-57
2022/11/01 04:03:59;;;;;;;12.32;4.43;;;15.50;99.90;;;;;;5040902;28;20068;-58
2022/11/01 04:06:25;;;;;;;13.55;5.45;;;15.50;99.90;;;;;;5041334;28;20040;-58
2022/11/01 04:08:52;;;;;;;8.48;5.00;;;15.50;99.90;;;;;;5039921;28;20512;-59
2022/11/01 04:11:17;;;;;;;10.63;5.07;;;15.40;99.90;;;;;;5039478;28;20041;-57
2022/11/01 04:13:43;;;;;;;7.15;4.68;;;15.50;99.90;;;;;;5040763;28;20521;-60
2022/11/01 04:21:38;;;;;;;10.40;5.20;;;15.60;99.90;;;;;;5024279;28;20056;-57
2022/11/01 04:24:03;;;;;;;12.55;5.07;;;15.70;99.90;;;;;;5038944;28;20043;-58
2022/11/01 04:26:29;;;;;;;9.05;5.30;;;15.60;99.90;;;;;;5037536;28;20087;-59
2022/11/01 04:28:58;;;;;;;10.63;5.07;;;15.60;99.90;;;;;;5041571;28;20033;-59
2022/11/01 04:31:23;;;;;;;12.20;5.07;;;15.60;99.90;;;;;;5039526;28;20048;-59
2022/11/01 04:33:50;;;;;;;13.45;5.38;;;15.60;99.90;;;;;;5050102;28;20431;-56
2022/11/01 04:36:15;;;;;;;15.38;5.00;;;15.60;99.90;;;;;;5051082;28;20040;-57
2022/11/01 04:38:41;;;;;;;11.32;5.00;;;15.60;99.90;;;;;;5044598;28;20130;-56
2022/11/01 04:41:06;;;;;;;9.35;5.18;;;15.50;99.90;;;;;;5032822;28;20044;-54
2022/11/01 04:43:32;;;;;;;12.00;5.10;;;15.60;99.90;;;;;;5043308;28;20536;-57
2022/11/01 04:45:57;;;;;;;9.02;5.22;;;15.50;99.90;;;;;;5054275;28;20037;-57
2022/11/01 04:48:25;;;;;;;8.63;4.95;;;15.50;99.90;;;;;;5051970;28;20044;-56
2022/11/01 04:50:51;;;;;;;9.85;4.75;;;15.50;99.90;;;;;;5034596;28;20061;-57
2022/11/01 04:53:17;;;;;;;9.43;4.90;;;15.50;99.90;;;;;;5052211;28;20040;-58
2022/11/01 04:55:42;;;;;;;9.77;5.35;;;15.60;99.90;;;;;;5063479;28;20039;-57
2022/11/01 04:58:09;;;;;;;11.98;5.45;;;15.50;99.90;;;;;;5060039;28;20514;-58
2022/11/01 05:00:35;;;;;;;9.88;4.90;;;15.50;99.90;;;;;;5055244;28;20057;-57
2022/11/01 05:03:04;;;;;;;7.97;4.80;;;15.50;99.90;;;;;;5054683;28;20033;-58
2022/11/01 05:05:30;;;;;;;7.95;4.38;;;15.50;99.90;;;;;;5062757;28;20048;-56
2022/11/01 05:08:01;;;;;;;6.53;4.72;;;15.50;99.90;;;;;;5062689;28;20440;-57
2022/11/01 05:10:26;;;;;;;9.25;4.90;;;15.50;99.90;;;;;;5057313;28;20090;-57
2022/11/01 05:12:52;;;;;;;9.07;4.80;;;15.60;99.90;;;;;;5062370;28;20032;-58
2022/11/01 05:15:17;;;;;;;9.45;5.00;;;15.60;99.90;;;;;;5062534;28;20048;-57
2022/11/01 05:17:43;;;;;;;8.07;4.80;;;15.60;99.90;;;;;;5063172;28;20033;-57
2022/11/01 05:20:09;;;;;;;9.63;5.38;;;15.60;99.90;;;;;;5058563;28;20041;-57
2022/11/01 05:22:35;;;;;;;8.65;4.45;;;15.60;99.90;;;;;;5058191;28;20072;-58
2022/11/01 05:25:01;;;;;;;8.77;4.60;;;15.60;99.90;;;;;;5062041;28;20119;-56
2022/11/01 05:27:26;;;;;;;10.27;4.85;;;15.70;99.90;;;;;;5038367;28;20044;-56
2022/11/01 05:29:52;;;;;;;8.15;3.90;;;15.60;99.90;;;;;;5057599;28;20086;-54
2022/11/01 05:32:17;;;;;;;10.52;5.05;;;15.70;99.90;;;;;;5050557;28;20041;-56
2022/11/01 05:34:43;;;;;;;7.72;4.47;;;15.60;99.90;;;;;;5063856;28;20386;-58
2022/11/01 05:37:09;;;;;;;8.65;4.47;;;15.60;99.90;;;;;;5054380;28;20057;-57
2022/11/01 05:39:35;;;;;;;7.25;4.32;;;15.60;99.90;;;;;;5059390;28;20428;-57
2022/11/01 05:42:00;;;;;;;7.60;4.32;;;15.50;99.90;;;;;;5063827;28;20045;-58
2022/11/01 05:44:26;;;;;;;5.85;4.05;;;15.40;99.90;;;;;;5057533;28;20048;-57
2022/11/01 05:46:51;;;;;;;9.95;4.35;;;15.50;99.90;;;;;;5059090;28;20043;-56
2022/11/01 05:49:17;;;;;;;10.27;3.75;;;15.40;99.90;;;;;;5038218;28;20423;-58
2022/11/01 05:51:42;;;;;;;6.47;3.25;;;15.30;99.90;;;;;;5053468;28;20077;-57
2022/11/01 05:54:08;;;;;;;7.63;3.40;;;15.30;99.90;;;;;;5048183;28;20048;-57
2022/11/01 05:56:34;;;;;;;11.05;3.50;;;15.20;99.90;;;;;;5056765;28;20048;-58
2022/11/01 05:58:59;;;;;;;4.47;2.63;;;15.20;99.90;;;;;;5051200;28;20443;-57
2022/11/01 06:01:25;;;;;;;8.05;2.70;;;15.20;99.90;;;;;;5055941;28;20034;-56
2022/11/01 06:03:50;;;;;;;8.20;2.30;;;15.10;99.90;;;;;;5055557;28;20041;-58
2022/11/01 06:06:16;;;;;;;5.15;2.08;;;15.10;99.90;;;;;;5056119;28;20036;-57
2022/11/01 06:08:42;;;;;;;4.93;1.60;;;15.00;99.90;;;;;;5056662;28;20195;-56
2022/11/01 06:11:08;;;;;;;5.68;1.75;;;14.90;99.90;;;;;;5059244;28;20101;-57
2022/11/01 06:13:34;;;;;;;4.13;1.67;;;14.90;99.90;;;;;;5060387;28;20439;-57
2022/11/01 06:16:01;;;;;;;3.70;1.42;;;14.70;99.90;;;;;;5061191;28;20029;-58
2022/11/01 06:18:26;;;;;;;4.20;1.52;;;14.60;99.90;;;;;;5061672;28;20393;-57
2022/11/01 06:20:52;;;;;;;2.75;1.40;;;14.50;99.90;;;;;;5060734;28;20036;-58
2022/11/01 06:23:19;;;;;;;2.92;1.33;;;14.50;99.90;;;;;;5061210;28;20040;-58
2022/11/01 06:25:45;;;;;;;3.45;1.17;;;14.40;99.90;;;;;;5060423;28;20037;-58
2022/11/01 06:28:10;;;;;;;4.72;1.20;;;14.30;99.90;;;;;;5056694;28;20040;-56
2022/11/01 06:30:39;;;;;;;1.85;1.15;;;14.20;99.90;;;;;;5059555;28;20496;-58
2022/11/01 06:33:08;;;;;;;2.13;1.23;;;14.10;99.90;;;;;;5058376;28;20060;-58
2022/11/01 06:35:34;;;;;;;4.05;1.27;;;14.00;99.90;;;;;;5060122;28;20040;-56
2022/11/01 06:38:05;;;;;;;4.97;1.27;;;14.00;99.90;;;;;;5057935;28;20049;-56
2022/11/01 06:40:31;;;;;;;5.55;0.93;;;13.90;99.90;;;;;;5059386;28;20116;-56
2022/11/01 06:43:02;;;;;;;8.13;1.50;;;13.90;99.90;;;;;;5056430;28;20434;-57
2022/11/01 06:45:28;;;;;;;4.07;1.10;;;13.80;99.90;;;;;;5054453;28;20045;-56
2022/11/01 06:47:54;;;;;;;6.60;1.10;;;13.70;99.90;;;;;;5034160;28;20059;-58
2022/11/01 06:50:20;;;;;;;4.45;1.17;;;13.70;99.90;;;;;;5040184;28;20037;-57
2022/11/01 06:52:46;;;;;;;1.77;0.75;;;13.70;99.90;;;;;;5040134;28;20037;-57
2022/11/01 06:55:12;;;;;;;4.22;0.93;;;13.70;99.90;;;;;;5040795;28;20049;-56
2022/11/01 06:57:37;;;;;;;2.97;1.25;;;13.70;99.90;;;;;;5021821;28;20049;-56
2022/11/01 07:00:04;;;;;;;2.80;1.02;;;13.70;99.90;;;;;;5040437;28;20087;-57
2022/11/01 07:02:29;;;;;;;3.40;1.05;;;13.60;99.90;;;;;;5015186;28;20043;-57
2022/11/01 07:04:55;;;;;;;3.80;0.82;;;13.60;99.90;;;;;;5040205;28;20033;-57
2022/11/01 07:07:21;;;;;;;3.83;1.05;;;13.60;99.90;;;;;;5040612;28;20083;-59
2022/11/01 07:09:46;;;;;;;4.72;1.00;;;13.70;99.90;;;;;;5044526;28;20087;-59
2022/11/01 07:12:12;;;;;;;4.03;1.10;;;13.60;99.90;;;;;;5042725;28;20064;-59
2022/11/01 07:14:37;;;;;;;5.15;1.25;;;13.60;99.90;;;;;;5043420;28;20040;-57
2022/11/01 07:17:03;;;;;;;3.42;1.02;;;13.60;99.90;;;;;;5042575;28;20445;-59
2022/11/01 07:19:29;;;;;;;3.47;1.00;;;13.60;99.90;;;;;;5045941;28;20052;-58
2022/11/01 07:21:54;;;;;;;4.32;1.25;;;13.60;99.90;;;;;;5044994;28;20135;-58
2022/11/01 07:24:20;;;;;;;5.22;0.85;;;13.60;99.90;;;;;;5045683;28;20044;-57
2022/11/01 07:26:46;;;;;;;2.28;1.05;;;13.50;99.90;;;;;;5045896;28;20055;-59
2022/11/01 07:29:11;;;;;;;2.88;0.80;;;13.50;99.90;;;;;;5024234;28;20086;-59
2022/11/01 07:31:37;;;;;;;1.85;0.85;;;13.50;99.90;;;;;;5041320;28;20037;-59
2022/11/01 07:34:04;;;;;;;5.53;1.00;;;13.50;99.90;;;;;;5042823;28;20037;-60
2022/11/01 07:36:29;;;;;;;2.75;1.05;;;13.60;99.90;;;;;;5039608;28;20056;-59
2022/11/01 07:38:55;;;;;;;3.63;0.90;;;13.70;99.90;;;;;;5023798;28;20044;-59
2022/11/01 07:41:21;;;;;;;3.28;1.10;;;13.80;99.90;;;;;;5040829;28;20049;-58
2022/11/01 07:43:46;;;;;;;4.72;1.30;;;13.80;99.90;;;;;;5027985;28;20044;-58
2022/11/01 07:46:12;;;;;;;8.93;1.40;;;13.90;99.90;;;;;;5044413;28;20180;-59
2022/11/01 07:48:38;;;;;;;6.88;1.65;;;14.00;99.90;;;;;;5050255;28;20049;-59
2022/11/01 07:51:04;;;;;;;4.47;1.23;;;14.00;99.90;;;;;;5054438;28;20061;-59
2022/11/01 07:53:31;;;;;;;5.20;1.23;;;14.00;99.90;;;;;;5022547;28;20052;-58
2022/11/01 07:55:59;;;;;;;7.65;1.42;;;14.10;99.90;;;;;;5020583;28;20509;-57
2022/11/01 07:58:25;;;;;;;7.07;1.70;;;14.10;99.90;;;;;;5038715;28;20041;-57
2022/11/01 08:00:50;;;;;;;12.00;1.85;;;14.10;99.90;;;;;;5040863;28;20099;-59
2022/11/01 08:03:18;;;;;;;6.50;1.65;;;14.10;99.90;;;;;;5050669;28;20038;-58
2022/11/01 08:05:45;;;;;;;7.05;1.63;;;14.20;99.90;;;;;;5042091;28;20045;-59
2022/11/01 08:08:12;;;;;;;11.98;1.60;;;14.20;99.90;;;;;;5040267;28;20059;-60
2022/11/01 08:10:38;;;;;;;6.20;1.75;;;14.20;99.90;;;;;;5052192;28;20044;-59
2022/11/01 08:13:05;;;;;;;15.90;1.73;;;14.20;99.90;;;;;;5052650;28;20044;-57
2022/11/01 08:15:31;;;;;;;7.00;1.60;;;14.30;99.90;;;;;;5054098;28;20068;-59
2022/11/01 08:17:57;;;;;;;7.85;1.40;;;14.30;99.90;;;;;;5049769;28;20040;-58
2022/11/01 08:20:24;;;;;;;6.97;1.60;;;14.40;99.90;;;;;;5054092;28;20048;-58
2022/11/01 08:22:50;;;;;;;10.07;1.73;;;14.40;99.90;;;;;;5054938;28;20420;-58
2022/11/01 08:25:16;;;;;;;8.73;1.65;;;14.40;99.90;;;;;;5051363;28;20503;-58
2022/11/01 08:27:41;;;;;;;9.48;1.92;;;14.50;99.90;;;;;;5051246;28;20159;-60
2022/11/01 08:30:08;;;;;;;10.95;2.10;;;14.50;99.90;;;;;;5051492;28;20545;-58
2022/11/01 08:32:33;;;;;;;8.50;1.45;;;14.50;99.90;;;;;;5050449;28;20079;-60
2022/11/01 08:34:59;;;;;;;11.77;2.03;;;14.50;99.90;;;;;;5053319;28;20072;-57
2022/11/01 08:37:24;;;;;;;8.68;1.67;;;14.60;99.90;;;;;;5049774;28;20049;-58
2022/11/01 08:39:50;;;;;;;9.18;1.70;;;14.60;99.90;;;;;;5052200;28;20044;-59
2022/11/01 08:42:15;;;;;;;12.07;2.25;;;14.70;99.90;;;;;;5053734;28;20063;-59
2022/11/01 08:44:41;;;;;;;11.90;2.42;;;14.70;99.90;;;;;;5036477;28;20066;-59
2022/11/01 08:47:08;;;;;;;11.00;1.92;;;14.70;99.90;;;;;;5035104;28;20093;-58
2022/11/01 08:49:33;;;;;;;13.45;2.10;;;14.80;99.90;;;;;;5058038;28;20522;-59
2022/11/01 08:51:59;;;;;;;8.48;1.88;;;14.80;99.90;;;;;;5052997;28;20041;-58
2022/11/01 08:54:25;;;;;;;10.38;2.47;;;14.80;99.90;;;;;;5052407;28;20052;-59
2022/11/01 08:56:50;;;;;;;12.70;2.50;;;14.80;99.90;;;;;;5055581;28;20359;-58
2022/11/01 08:59:16;;;;;;;11.15;2.17;;;14.80;99.90;;;;;;5052773;28;20068;-58
2022/11/01 09:01:42;;;;;;;12.73;2.53;;;14.80;99.90;;;;;;5050483;28;20048;-57
2022/11/01 09:04:07;;;;;;;13.57;2.47;;;14.80;99.90;;;;;;5034410;28;20494;-57
2022/11/01 09:06:34;;;;;;;11.15;2.45;;;14.80;99.90;;;;;;5055462;28;20090;-58
2022/11/01 09:08:59;;;;;;;11.70;2.22;;;14.90;99.90;;;;;;5029047;28;20044;-58
2022/11/01 09:11:25;;;;;;;11.70;2.45;;;15.00;99.90;;;;;;5013567;28;20044;-58
2022/11/01 09:13:56;;;;;;;8.38;2.20;;;15.10;99.90;;;;;;5049069;28;20394;-58
2022/11/01 09:16:22;;;;;;;9.38;2.13;;;15.10;99.90;;;;;;5059690;28;20033;-56
2022/11/01 09:18:48;;;;;;;10.63;2.30;;;15.10;99.90;;;;;;5061928;28;20049;-56
2022/11/01 09:21:14;;;;;;;9.48;2.00;;;15.20;99.90;;;;;;5047126;28;20045;-57
2022/11/01 09:23:40;;;;;;;15.07;2.28;;;15.20;99.90;;;;;;5057254;28;20043;-56
2022/11/01 09:26:07;;;;;;;12.10;2.78;;;15.20;99.90;;;;;;5059538;28;20035;-58
2022/11/01 09:28:33;;;;;;;;;;;15.30;99.90;;;;;;5057632;28;20045;-57
2022/11/01 09:31:04;;;;;;;11.60;2.33;;;15.20;99.90;;;;;;5051741;28;19928;-58
2022/11/01 09:33:31;;;;;;;10.77;2.45;;;15.20;99.90;;;;;;5053388;28;20041;-57
2022/11/01 09:35:57;;;;;;;15.70;2.75;;;15.30;99.90;;;;;;5046399;28;20036;-57
2022/11/01 09:38:23;;;;;;;13.85;2.40;;;15.30;99.90;;;;;;5054407;28;20132;-57
2022/11/01 09:41:02;;;;;;;14.20;2.53;;;15.30;99.90;;;;;;5050295;28;20120;-57
2022/11/01 09:43:31;;;;;;;9.25;2.03;;;15.40;99.90;;;;;;5054067;28;20151;-56
2022/11/01 09:45:59;;;;;;;7.53;2.08;;;15.40;99.90;;;;;;5054747;28;20072;-56
2022/11/01 09:48:27;;;;;;;14.23;2.67;;;15.40;99.90;;;;;;5053598;28;20037;-58
2022/11/01 09:50:54;;;;;;;11.52;2.22;;;15.40;99.90;;;;;;5054806;28;20139;-59
2022/11/01 09:53:24;;;;;;;11.43;2.22;;;15.40;99.90;;;;;;5059909;28;20119;-58
2022/11/01 09:56:34;;;;;;;15.43;2.83;;;15.50;99.90;;;;;;5061873;28;20044;-58
2022/11/01 09:59:27;;;;;;;14.73;2.50;;;15.50;99.90;;;;;;5036912;28;20060;-58
2022/11/01 10:02:25;;;;;;;11.80;2.58;;;15.50;99.90;;;;;;5058298;28;20123;-58
2022/11/01 10:04:59;;;;;;;12.38;2.65;;;15.50;99.90;;;;;;5055784;28;20048;-57
2022/11/01 10:07:31;;;;;;;13.40;2.80;;;15.60;99.90;;;;;;5059927;28;20052;-58
2022/11/01 10:10:05;;;;;;;14.15;2.28;;;15.60;99.90;;;;;;5038160;28;20049;-58
2022/11/01 10:13:09;;;;;;;15.00;2.33;;;15.70;99.90;;;;;;5059031;28;20040;-58
2022/11/01 10:16:11;;;;;;;12.55;2.30;;;15.70;99.90;;;;;;5056759;28;20045;-58
2022/11/01 10:18:58;;;;;;;13.57;2.63;;;15.90;99.90;;;;;;5061094;28;20516;-58
2022/11/01 10:21:26;;;;;;;10.88;2.38;;;16.10;99.90;;;;;;5056110;28;20082;-58
2022/11/01 10:23:52;;;;;;;11.20;2.30;;;16.00;99.90;;;;;;5048383;28;20511;-57
2022/11/01 10:26:29;;;;;;;11.98;2.75;;;16.00;99.90;;;;;;5046452;28;20037;-58
2022/11/01 10:29:45;;;;;;;11.48;2.25;;;16.10;99.90;;;;;;5039162;28;20045;-58
2022/11/01 10:32:32;;;;;;;11.27;2.42;;;16.00;99.90;;;;;;5024139;28;20494;-58
2022/11/01 10:35:09;;;;;;;12.02;2.72;;;16.10;99.90;;;;;;5052616;28;20162;-56
2022/11/01 10:37:58;;;;;;;;;;;16.10;99.90;;;;;;5052786;28;20129;-58
2022/11/01 10:40:51;;;;;;;20.65;3.13;;;16.10;99.90;;;;;;5045777;28;19925;-58
2022/11/01 10:43:21;;;;;;;16.98;3.13;;;16.20;99.90;;;;;;5048266;28;20117;-56
2022/11/01 10:45:48;;;;;;;13.23;2.60;;;16.20;99.90;;;;;;5060875;28;20146;-57
2022/11/01 10:48:30;;;;;;;12.13;2.78;;;16.20;99.90;;;;;;5060598;28;20062;-58
2022/11/01 10:51:00;;;;;;;10.35;2.33;;;16.20;99.90;;;;;;5057243;28;20060;-58
2022/11/01 10:53:29;;;;;;;13.15;2.35;;;16.20;99.90;;;;;;5054409;28;20040;-58
2022/11/01 10:56:00;;;;;;;13.77;2.42;;;16.30;99.90;;;;;;5054284;28;20530;-58
2022/11/01 10:58:58;;;;;;;13.68;2.85;;;16.30;99.90;;;;;;5055711;28;20521;-58
2022/11/01 11:01:28;;;;;;;11.38;2.53;;;16.40;99.90;;;;;;5055760;28;20533;-57
2022/11/01 11:03:56;;;;;;;15.68;2.95;;;16.40;99.90;;;;;;5058286;28;20111;-58
2022/11/01 11:06:22;;;;;;;13.13;2.53;;;16.40;99.90;;;;;;5054288;28;20040;-59
2022/11/01 11:08:50;;;;;;;11.65;2.40;;;16.40;99.90;;;;;;5046795;28;20041;-58
2022/11/01 11:11:19;;;;;;;13.88;2.67;;;16.50;99.90;;;;;;5047761;28;20048;-59
2022/11/01 11:13:51;;;;;;;13.55;2.67;;;16.60;99.90;;;;;;5057249;28;20186;-58
2022/11/01 11:16:35;;;;;;;14.43;2.55;;;16.60;99.90;;;;;;5040849;28;20045;-59
2022/11/01 11:19:21;;;;;;;13.25;3.05;;;16.70;99.90;;;;;;5059881;28;20045;-58
2022/11/01 11:21:50;;;;;;;10.13;2.03;;;16.70;99.90;;;;;;5058416;28;20159;-58
2022/11/01 11:24:27;;;;;;;13.13;3.38;;;16.80;99.90;;;;;;5056512;28;20052;-58
2022/11/01 11:26:55;;;;;;;16.83;3.03;;;17.00;99.90;;;;;;5055889;28;20036;-58
2022/11/01 11:29:37;;;;;;;17.42;3.20;;;17.00;99.90;;;;;;5054632;28;20037;-59
2022/11/01 11:32:16;;;;;;;11.20;2.40;;;17.10;99.90;;;;;;5052191;28;20040;-56
2022/11/01 11:34:42;;;;;;;14.50;2.22;;;17.10;99.90;;;;;;5053866;28;20151;-55
2022/11/01 11:37:17;;;;;;;12.90;2.22;;;17.00;99.90;;;;;;5058055;28;20053;-56
2022/11/01 11:40:00;;;;;;;15.70;2.78;;;17.10;99.90;;;;;;5060106;28;20111;-55
2022/11/01 11:42:26;;;;;;;12.98;3.13;;;17.10;99.90;;;;;;5053778;28;20037;-56
2022/11/01 11:44:54;;;;;;;10.30;2.38;;;17.00;99.90;;;;;;5062036;28;20405;-56
2022/11/01 11:49:57;;;;;;;10.40;2.20;;;16.90;99.90;;;;;;4752191;22;20060;-58
2022/11/01 11:52:30;;;;;;;13.85;2.60;;;16.90;99.90;;;;;;5034310;28;20045;-58
2022/11/01 11:54:56;;;;;;;15.63;2.95;;;16.90;99.90;;;;;;5054511;28;20124;-58
2022/11/01 11:57:26;;;;;;;14.25;2.33;;;16.80;99.90;;;;;;5046957;28;20128;-56
2022/11/01 11:59:54;;;;;;;11.80;2.25;;;16.70;99.90;;;;;;5053098;28;20033;-57
2022/11/01 12:02:31;;;;;;;10.63;2.20;;;16.70;99.90;;;;;;5041423;28;20049;-55
2022/11/01 12:05:00;;;;;;;13.38;2.70;;;16.70;99.90;;;;;;5054644;28;20571;-58
2022/11/01 12:07:34;;;;;;;11.27;2.10;;;16.60;99.90;;;;;;5046319;28;20040;-58
2022/11/01 12:10:02;;;;;;;10.90;2.17;;;16.60;99.90;;;;;;5049379;28;20107;-59
2022/11/01 12:12:34;;;;;;;12.18;2.00;;;16.60;99.90;;;;;;5050082;28;20049;-57
2022/11/01 12:15:02;;;;;;;11.65;2.55;;;16.60;99.90;;;;;;5054789;28;20048;-57
2022/11/01 12:17:43;;;;;;;12.35;1.95;;;16.70;99.90;;;;;;5048825;28;20037;-57
2022/11/01 12:20:25;;;;;;;9.98;2.00;;;16.60;99.90;;;;;;5053777;28;20052;-58
2022/11/01 12:23:14;;;;;;;7.35;1.45;;;16.70;99.90;;;;;;5047056;28;20095;-58
2022/11/01 12:25:43;;;;;;;13.13;2.33;;;16.60;99.90;;;;;;5040798;28;20067;-58
2022/11/01 12:28:16;;;;;;;8.63;2.05;;;;;;;;;;5048711;28;20556;-58
2022/11/01 12:30:43;;;;;;;9.98;2.17;;;16.70;99.90;;;;;;5044394;28;20045;-58
2022/11/01 12:33:17;;;;;;;14.98;2.15;;;16.70;99.90;;;;;;5042528;28;20128;-58
2022/11/01 12:35:44;;;;;;;7.60;1.65;;;16.80;99.90;;;;;;5053728;28;20040;-59
2022/11/01 12:38:19;;;;;;;10.68;2.08;;;16.80;99.90;;;;;;5047552;28;20044;-59
2022/11/01 12:40:48;;;;;;;10.02;1.98;;;16.70;99.90;;;;;;5050500;28;20052;-59
2022/11/01 12:43:19;;;;;;;6.28;1.77;;;16.80;99.90;;;;;;5055932;28;20080;-59
2022/11/01 12:46:00;;;;;;;9.00;1.80;;;16.80;99.90;;;;;;5044247;28;20045;-59
2022/11/01 12:48:32;;;;;;;7.38;1.60;;;16.80;99.90;;;;;;5041663;28;20063;-58
2022/11/01 12:51:05;;;;;;;8.35;2.05;;;16.80;99.90;;;;;;5042960;28;20567;-58
2022/11/01 12:53:41;;;;;;;10.75;2.10;;;16.90;99.90;;;;;;5043102;28;20044;-59
2022/11/01 12:56:07;;;;;;;10.52;1.90;;;17.00;99.90;;;;;;5038233;28;20505;-59
2022/11/01 12:58:33;;;;;;;10.27;2.60;;;17.00;99.90;;;;;;5020874;28;20052;-57
2022/11/01 13:01:17;;;;;;;9.25;1.85;;;17.00;99.90;;;;;;5021331;28;20617;-59
2022/11/01 13:03:47;;;;;;;11.95;1.92;;;17.00;99.90;;;;;;5040586;28;20425;-59
2022/11/01 13:06:22;;;;;;;15.77;2.20;;;17.00;99.90;;;;;;5039527;28;20101;-58